No Warnings, Watches, or Advisories

Active alerts


No alerts

Hours of Daylight

12 hrs 12 min 48 sec
of Daylight Today
50.8% Day 49.2% Night Which is
2 min 42 sec Shorter
Than Yesterday

South Webcam more information South Webcam


NorthWest Webcam more information NorthWest Webcam


You find our weather info also at:

UK Metoffice

Weather Underground

Mid-Atlantic Weather Network

WeatherlinkIP

Citizen Weather Observer Program (CWOP)

HAMweather, WeatherForYou, PWS Weather



Nearby METAR Reports

   
KDUJ - Du Bois, Pennsylvania, USA
Distance from station: NNE 16 mi
Updated: Sep 20 2021 5:53 am
Clear  
Clear  
   Wind: ESE 6.9 mph
Wind: ESE 6.9 mph
Temperature: 55.4°F
Dew Point: 51.8°F
Humidity: 88%
Barometer: 30.22 inHg
Clouds: Clear
Visibility: 10 mi
Cloud details: Clear
KDUJ 200953Z AUTO 11006KT 10SM CLR 13/11 A3022 RMK AO2 SLP225 T01330111 $
KIDI - Indiana/Stewart, Pennsylvania, USA
Distance from station: SSW 23 mi
Updated: Sep 20 2021 6:55 am
Clear  
Clear  
   Wind: Calm
Wind: Calm
Temperature: 62.6°F
Dew Point: 57.2°F
Humidity: 83%
Barometer: 30.24 inHg
Clouds: Clear
Visibility: 10 mi
Cloud details: Clear
KIDI 201055Z AUTO 00000KT 10SM CLR 17/14 A3024 RMK A01
KFIG - Clearfield, Pennsylvania, USA
Distance from station: ENE 31 mi
Updated: Sep 20 2021 6:54 am
Fog, Overcast  
Fog, Overcast  
   Wind: North 3.5 mph
Wind: North 3.5 mph
Temperature: 48.2°F
Wind Chill: 46.4°F
Dew Point: 48.2°F
Humidity: 100%
Barometer: 30.26 inHg
Clouds: Overcast
Visibility: 1 mi
Cloud details: Overcast 100 ft
KFIG 201054Z AUTO 01003KT 1/4SM FG VV001 09/09 A3026 RMK AO2 SLP247 T00940094 $
KJST - Johnstown, Pennsylvania, USA
Distance from station: S 44 mi
Updated: Sep 20 2021 6:54 am
Clear  
Clear  
   Wind: South 6.9 mph
Wind: South 6.9 mph
Temperature: 60.8°F
Dew Point: 50°F
Humidity: 68%
Barometer: 30.25 inHg
Clouds: Clear
Visibility: 10 mi
Cloud details: Clear
KJST 201054Z AUTO 18006KT 10SM CLR 16/10 A3025 RMK AO2 SLP236 T01560100
KPIT - Pittsburgh, Pennsylvania, USA
Distance from station: WSW 74 mi
Updated: Sep 20 2021 6:51 am
Mostly Cloudy  
Mostly Cloudy  
   Wind: East 3.5 mph
Wind: East 3.5 mph
Temperature: 60.8°F
Dew Point: 57.2°F
Humidity: 88%
Barometer: 30.16 inHg
Clouds: Mostly Cloudy
Visibility: 10 mi
Cloud details: Mostly Cloudy 23000 ft
KPIT 201051Z 09003KT 10SM BKN230 16/14 A3016 RMK AO2 SLP215 T01560139
KLBE - Latrobe/Westmorl, Pennsylvania, USA
Distance from station: SSW 52 mi
Updated: Sep 20 2021 6:47 am
Clear  
Clear  
   Wind: Calm
Wind: Calm
Temperature: 62.6°F
Dew Point: 59°F
Humidity: 88%
Barometer: 30.18 inHg
Clouds: Clear
Visibility: 10 mi
Cloud details: Clear
KLBE 201047Z 00000KT 10SM CLR 17/15 A3018
KBTP - Butler Co., Pennsylvania, USA
Distance from station: WSW 52 mi
Updated: Sep 20 2021 6:56 am
Clear  
Clear  
   Wind: NE 4.6 mph
Wind: NE 4.6 mph
Temperature: 53.6°F
Dew Point: 53.6°F
Humidity: 100%
Barometer: 30.19 inHg
Clouds: Clear
Visibility: 10 mi
Cloud details: Clear
KBTP 201056Z AUTO 05004KT 10SM CLR 12/12 A3019 RMK AO2 SLP226 T01220117
KUCP - New Castle Muni, Pennsylvania, USA
Distance from station: W 75 mi
Updated: Sep 20 2021 6:56 am
Clear  
Clear  
   Wind: Calm
Wind: Calm
Temperature: 53.6°F
Dew Point: 51.8°F
Humidity: 94%
Barometer: 30.18 inHg
Clouds: Clear
Visibility: 10 mi
Cloud details: Clear
KUCP 201056Z AUTO 00000KT 10SM CLR 12/11 A3018 RMK AO2 SLP233 T01170111
KFKL - Franklin, Pennsylvania, USA
Distance from station: WNW 54 mi
Updated: Sep 20 2021 6:56 am
Clear  
Clear  
   Wind: ESE 4.6 mph
Wind: ESE 4.6 mph
Temperature: 53.6°F
Dew Point: 51.8°F
Humidity: 94%
Barometer: 30.21 inHg
Clouds: Clear
Visibility: 10 mi
Cloud details: Clear
KFKL 201056Z AUTO 11004KT 10SM CLR 12/11 A3021 RMK AO2 SLP228 T01170106
KAOO - Altoona, Pennsylvania, USA
Distance from station: SE 57 mi
Updated: Sep 20 2021 6:53 am
Clear  
Clear  
   Wind: East 3.5 mph
Wind: East 3.5 mph
Temperature: 53.6°F
Dew Point: 50°F
Humidity: 88%
Barometer: 30.26 inHg
Clouds: Clear
Visibility: 7 mi
Cloud details: Clear
KAOO 201053Z AUTO 09003KT 7SM CLR 12/10 A3026 RMK AO2 SLP245 T01170100
KUNV - State College, Pennsylvania, USA
Distance from station: E 61 mi
Updated: Sep 20 2021 6:53 am
Fog, Clear  
Fog, Clear  
   Wind: Calm
Wind: Calm
Temperature: 50°F
Dew Point: 48.2°F
Humidity: 94%
Barometer: 30.24 inHg
Clouds: Clear
Visibility: 1 mi
Cloud details: Clear
KUNV 201053Z 00000KT 1/4SM FG CLR 10/09 A3024
KBFD - Bradford, Pennsylvania, USA
Distance from station: NNE 62 mi
Updated: Sep 20 2021 6:53 am
Clear  
Clear  
   Wind: SE 3.5 mph
Wind: SE 3.5 mph
Temperature: 48.2°F
Wind Chill: 46.4°F
Dew Point: 44.6°F
Humidity: 87%
Barometer: 30.25 inHg
Clouds: Clear
Visibility: 10 mi
Cloud details: Clear
KBFD 201053Z AUTO 14003KT 10SM CLR 09/07 A3025 RMK AO2 SLP239 T00940072

Script developed by  Saratoga-weather.org Adapted for the template by  Weerstation Leuven

Equipment we use:

Weather-station
Davis VP2

Weather-program
Cumulus

Weather-server
Dell Latitude e5450

Provider
Host On A Rope

Davis VP2

Cumulus

Dell Latitude e5450

Host On A Rope